createdAt,value
2022-11-14T05:31:08.538Z,99.20
2022-11-14T05:32:11.213Z,98.88
2022-11-14T05:33:09.506Z,98.68
2022-11-14T05:34:08.492Z,98.57
2022-11-14T05:35:08.477Z,98.16
2022-11-14T05:36:08.471Z,97.16
2022-11-14T05:37:08.461Z,97.89
2022-11-14T05:38:08.455Z,99.10
2022-11-14T05:39:08.446Z,99.36
2022-11-14T05:40:08.415Z,99.36
2022-11-14T05:41:08.437Z,99.26
2022-11-14T05:42:08.426Z,99.15
2022-11-14T05:43:08.402Z,99.26
2022-11-14T05:44:08.355Z,99.15
2022-11-14T05:45:16.415Z,98.84
2022-11-14T05:46:08.354Z,98.94
2022-11-14T05:47:08.347Z,98.88
2022-11-14T05:48:08.354Z,98.57
2022-11-14T05:49:08.304Z,98.47
2022-11-14T05:50:08.293Z,98.68
2022-11-14T05:51:08.262Z,98.68
2022-11-14T05:52:08.263Z,98.99
2022-11-14T05:53:08.264Z,98.88
2022-11-14T05:54:08.233Z,99.10
2022-11-14T05:55:08.212Z,98.83
2022-11-14T05:56:08.222Z,98.83
2022-11-14T05:57:08.202Z,99.24
2022-11-14T05:58:08.232Z,99.55
2022-11-14T05:59:08.175Z,99.99
2022-11-14T06:00:08.169Z,99.99
2022-11-14T06:01:08.172Z,99.99
2022-11-14T06:02:08.172Z,99.99
2022-11-14T06:03:08.210Z,99.82
2022-11-14T06:04:08.110Z,99.82
2022-11-14T06:05:08.100Z,99.76
2022-11-14T06:06:08.081Z,99.66
2022-11-14T06:07:08.094Z,99.35
2022-11-14T06:08:08.060Z,99.60
2022-11-14T06:09:08.059Z,99.81
2022-11-14T06:10:08.039Z,99.91
2022-11-14T06:11:08.021Z,99.99
2022-11-14T06:12:07.998Z,99.99
2022-11-14T06:13:07.998Z,99.99
2022-11-14T06:14:10.883Z,99.99
2022-11-14T06:15:07.972Z,99.99
2022-11-14T06:16:07.960Z,99.99
2022-11-14T06:17:07.949Z,99.99
2022-11-14T06:18:07.929Z,99.99
2022-11-14T06:19:07.917Z,99.99
2022-11-14T06:20:07.906Z,99.99
2022-11-14T06:21:07.885Z,99.98
2022-11-14T06:22:07.888Z,99.91
2022-11-14T06:23:07.858Z,99.99
2022-11-14T06:24:07.875Z,99.99
2022-11-14T06:25:07.839Z,99.99
2022-11-14T06:26:07.854Z,99.99
2022-11-14T06:27:07.812Z,99.99
2022-11-14T06:28:07.796Z,99.99
2022-11-14T06:29:07.795Z,99.99
2022-11-14T06:30:07.777Z,99.99
2022-11-14T06:31:07.764Z,99.99
2022-11-14T06:32:07.745Z,99.99
2022-11-14T06:33:07.735Z,99.99
2022-11-14T06:34:07.725Z,99.99
2022-11-14T06:35:07.713Z,99.99
2022-11-14T06:36:07.699Z,99.99
2022-11-14T06:37:07.685Z,99.99
2022-11-14T06:38:07.673Z,99.99
2022-11-14T06:39:07.673Z,99.99
2022-11-14T06:40:07.650Z,99.99
2022-11-14T06:41:07.643Z,99.99
2022-11-14T06:42:07.622Z,99.99
2022-11-14T06:43:07.602Z,99.99
2022-11-14T06:44:07.602Z,99.99
2022-11-14T06:45:07.589Z,99.99
2022-11-14T06:46:07.589Z,99.99
2022-11-14T06:47:07.563Z,99.99
2022-11-14T06:48:07.561Z,99.99
2022-11-14T06:49:07.550Z,99.99
2022-11-14T06:50:07.530Z,99.99
2022-11-14T06:51:07.510Z,99.99
2022-11-14T06:52:07.498Z,99.99
2022-11-14T06:53:07.481Z,99.99
2022-11-14T06:54:07.480Z,99.99
2022-11-14T06:55:07.469Z,99.99
2022-11-14T06:56:07.443Z,99.99
2022-11-14T06:57:07.429Z,99.99
2022-11-14T06:58:07.420Z,99.99
2022-11-14T06:59:07.417Z,99.99
2022-11-14T07:00:07.388Z,99.99
2022-11-14T07:01:07.377Z,99.99
2022-11-14T07:02:07.366Z,99.99
2022-11-14T07:03:07.399Z,99.99
2022-11-14T07:04:07.347Z,99.99
2022-11-14T07:05:07.342Z,99.87
2022-11-14T07:06:07.317Z,99.60
2022-11-14T07:07:07.421Z,99.50
2022-11-14T07:08:07.296Z,99.54
2022-11-14T07:09:07.276Z,99.65
2022-11-14T07:10:07.266Z,99.65
2022-11-14T07:11:07.245Z,99.80
2022-11-14T07:12:07.235Z,99.99
2022-11-14T07:13:07.227Z,99.99
2022-11-14T07:14:07.224Z,99.99
2022-11-14T07:15:07.214Z,99.99
2022-11-14T07:16:07.196Z,99.99
2022-11-14T07:17:07.184Z,99.99
2022-11-14T07:18:07.157Z,99.99
2022-11-14T07:19:07.162Z,99.99
2022-11-14T07:20:07.136Z,99.99
2022-11-14T07:21:07.123Z,99.99
2022-11-14T07:22:07.116Z,99.99
2022-11-14T07:23:07.104Z,99.99
2022-11-14T07:24:07.091Z,99.99
2022-11-14T07:25:07.071Z,99.99
2022-11-14T07:26:07.061Z,99.99
2022-11-14T07:27:07.052Z,99.99
2022-11-14T07:28:07.055Z,99.99
2022-11-14T07:29:07.031Z,99.99
2022-11-14T07:30:07.003Z,99.99
2022-11-14T07:31:07.003Z,99.99
2022-11-14T07:32:07.005Z,99.99
2022-11-14T07:33:06.970Z,99.99
2022-11-14T07:34:06.960Z,99.99
2022-11-14T07:35:06.950Z,99.99
2022-11-14T07:36:06.937Z,99.99
2022-11-14T07:37:06.920Z,99.99
2022-11-14T07:38:06.919Z,99.99
2022-11-14T07:39:06.909Z,99.99
2022-11-14T07:40:06.879Z,99.99
2022-11-14T07:41:06.874Z,99.99
2022-11-14T07:42:06.868Z,99.99
2022-11-14T07:43:06.839Z,99.04
2022-11-14T07:44:06.838Z,97.60
2022-11-14T07:45:06.817Z,96.17
2022-11-14T07:46:06.797Z,92.87
2022-11-14T07:47:06.796Z,90.66
2022-11-14T07:48:06.776Z,89.79
2022-11-14T07:49:06.779Z,87.85
2022-11-14T07:50:06.755Z,85.85
2022-11-14T07:51:06.736Z,84.06
2022-11-14T07:52:06.725Z,82.30
2022-11-14T07:53:06.726Z,81.99
2022-11-14T07:54:06.715Z,81.68
2022-11-14T07:55:06.735Z,81.61
2022-11-14T07:56:06.675Z,80.33
2022-11-14T07:57:06.685Z,79.93
2022-11-14T07:58:06.645Z,78.92
2022-11-14T07:59:06.688Z,77.48
2022-11-14T08:00:06.645Z,77.51
2022-11-14T08:01:06.741Z,78.38
2022-11-14T08:02:06.593Z,78.89
2022-11-14T08:03:06.614Z,78.58
2022-11-14T08:04:06.585Z,79.10
2022-11-14T08:05:06.563Z,78.30
2022-11-14T08:06:06.584Z,77.48
2022-11-14T08:07:06.598Z,77.07
2022-11-14T08:08:06.601Z,77.00
2022-11-14T08:09:06.572Z,75.87
2022-11-14T08:10:06.516Z,75.87
2022-11-14T08:11:06.505Z,75.76
2022-11-14T08:12:06.471Z,75.52
2022-11-14T08:14:07.510Z,75.87
2022-11-14T08:15:06.440Z,75.73
2022-11-14T08:16:11.065Z,75.93
2022-11-14T08:17:07.410Z,74.98
2022-11-14T08:18:06.393Z,74.67
2022-11-14T08:19:06.401Z,74.43
2022-11-14T08:20:06.424Z,74.12
2022-11-14T08:21:06.365Z,74.63
2022-11-14T08:22:06.348Z,74.32
2022-11-14T08:23:06.353Z,73.47
2022-11-14T08:24:06.362Z,73.68
2022-11-14T08:25:06.327Z,73.88
2022-11-14T08:26:06.290Z,72.82
2022-11-14T08:27:06.281Z,72.82
2022-11-14T08:28:06.259Z,72.61
2022-11-14T08:29:06.290Z,72.17
2022-11-14T08:30:06.248Z,71.22
2022-11-14T08:31:06.256Z,71.42
2022-11-14T08:32:06.228Z,71.18
2022-11-14T08:33:06.217Z,70.12
2022-11-14T08:34:06.196Z,69.55
2022-11-14T08:35:06.206Z,68.80
2022-11-14T08:36:06.168Z,68.05
2022-11-14T08:37:06.157Z,69.48
2022-11-14T08:38:06.135Z,69.24
2022-11-14T08:39:06.144Z,68.08
2022-11-14T08:40:06.128Z,67.54
2022-11-14T08:41:06.118Z,67.44
2022-11-14T08:42:06.097Z,67.07
2022-11-14T08:43:06.078Z,67.84
2022-11-14T08:44:06.066Z,69.24
2022-11-14T08:45:06.056Z,69.58
2022-11-14T08:46:06.145Z,68.35
2022-11-14T08:47:06.020Z,70.16
2022-11-14T08:48:06.013Z,69.85
2022-11-14T08:49:05.995Z,69.75
2022-11-14T08:50:06.006Z,71.32
2022-11-14T08:51:05.965Z,70.81
2022-11-14T08:52:05.965Z,71.73
2022-11-14T08:53:05.976Z,71.28
2022-11-14T08:54:05.977Z,70.43
2022-11-14T08:55:05.924Z,69.85
2022-11-14T08:56:05.911Z,70.03
2022-11-14T08:57:05.896Z,69.55
2022-11-14T08:58:05.875Z,68.52
2022-11-14T08:59:05.864Z,68.42
2022-11-14T09:00:05.854Z,68.42
2022-11-14T09:01:05.834Z,68.36
2022-11-14T09:02:05.838Z,67.92
2022-11-14T09:03:05.872Z,66.66
2022-11-14T09:04:05.887Z,66.80
2022-11-14T09:05:05.792Z,65.04
2022-11-14T09:06:05.773Z,64.15
2022-11-14T09:07:05.831Z,65.10
2022-11-14T09:08:05.752Z,65.00
2022-11-14T09:09:05.744Z,65.23
2022-11-14T09:10:05.731Z,65.47
2022-11-14T09:11:06.997Z,67.24
2022-11-14T09:12:05.701Z,66.39
2022-11-14T09:13:05.682Z,66.39
2022-11-14T09:14:05.683Z,66.90
2022-11-14T09:15:05.652Z,66.46
2022-11-14T09:16:05.653Z,66.28
2022-11-14T09:17:06.205Z,65.64
2022-11-14T09:18:05.633Z,66.49
2022-11-14T09:19:05.612Z,67.10
2022-11-14T09:20:05.594Z,67.30
2022-11-14T09:21:05.575Z,66.77
2022-11-14T09:22:05.589Z,66.02
2022-11-14T09:23:05.553Z,65.95
2022-11-14T09:24:05.553Z,65.64
2022-11-14T09:25:05.539Z,65.92
2022-11-14T09:26:05.512Z,65.81
2022-11-14T09:27:05.493Z,65.37
2022-11-14T09:28:05.556Z,65.20
2022-11-14T09:29:05.494Z,65.41
2022-11-14T09:30:05.470Z,65.28
2022-11-14T09:31:05.499Z,65.10
2022-11-14T09:32:05.441Z,65.37
2022-11-14T09:33:11.096Z,66.15
2022-11-14T09:34:06.421Z,66.28
2022-11-14T09:35:05.401Z,65.84
2022-11-14T09:36:05.399Z,64.66
2022-11-14T09:37:05.369Z,64.43
2022-11-14T09:38:05.362Z,63.68
2022-11-14T09:39:05.351Z,63.20
2022-11-14T09:40:05.391Z,63.71
2022-11-14T09:41:05.346Z,63.85
2022-11-14T09:42:05.300Z,64.83
2022-11-14T09:43:05.308Z,65.44
2022-11-14T09:44:05.296Z,65.41
2022-11-14T09:45:05.261Z,63.92
2022-11-14T09:46:05.262Z,63.82
2022-11-14T09:47:05.240Z,63.31
2022-11-14T09:48:05.232Z,63.41
2022-11-14T09:49:05.222Z,63.61
2022-11-14T09:50:05.211Z,63.23
2022-11-14T09:51:05.219Z,63.58
2022-11-14T09:52:05.180Z,62.33
2022-11-14T09:53:05.160Z,61.87
2022-11-14T09:54:05.177Z,61.29
2022-11-14T09:55:05.132Z,61.61
2022-11-14T09:56:05.120Z,62.20
2022-11-14T09:57:05.101Z,61.76
2022-11-14T09:58:05.101Z,61.18
2022-11-14T09:59:05.093Z,61.90
2022-11-14T10:00:05.070Z,61.08
2022-11-14T10:01:09.357Z,61.72
2022-11-14T10:02:05.107Z,62.43
2022-11-14T10:03:05.041Z,61.66
2022-11-14T10:04:09.325Z,60.82
2022-11-14T10:05:05.000Z,61.29
2022-11-14T10:06:05.001Z,62.13
2022-11-14T10:07:05.024Z,62.10
2022-11-14T10:08:04.961Z,62.33
2022-11-14T10:09:04.968Z,61.59
2022-11-14T10:10:04.940Z,61.76
2022-11-14T10:11:04.920Z,60.82
2022-11-14T10:12:04.912Z,60.59
2022-11-14T10:13:04.899Z,60.28
2022-11-14T10:14:04.901Z,60.61
2022-11-14T10:15:04.870Z,61.05
2022-11-14T10:16:04.860Z,61.02
2022-11-14T10:17:10.216Z,61.56
2022-11-14T10:18:05.842Z,61.53
2022-11-14T10:19:04.820Z,60.82
2022-11-14T10:20:04.841Z,60.28
2022-11-14T10:21:04.791Z,60.31
2022-11-14T10:22:04.781Z,60.31
2022-11-14T10:23:04.772Z,61.15
2022-11-14T10:24:04.851Z,62.17
2022-11-14T10:25:04.759Z,60.92
2022-11-14T10:26:04.732Z,60.18
2022-11-14T10:27:04.720Z,60.05
2022-11-14T10:28:05.537Z,60.15
2022-11-14T10:29:04.692Z,59.92
2022-11-14T10:30:04.692Z,58.80
2022-11-14T10:31:04.663Z,58.91
2022-11-14T10:32:04.654Z,59.24
2022-11-14T10:33:04.645Z,59.98
2022-11-14T10:34:04.621Z,59.77
2022-11-14T10:35:04.630Z,60.05
2022-11-14T10:36:04.611Z,58.80
2022-11-14T10:37:04.590Z,59.41
2022-11-14T10:38:04.589Z,58.54
2022-11-14T10:39:04.562Z,57.48
2022-11-14T10:40:04.662Z,56.97
2022-11-14T10:41:04.573Z,56.61
2022-11-14T10:42:07.886Z,55.77
2022-11-14T10:43:04.511Z,55.90
2022-11-14T10:44:04.545Z,55.88
2022-11-14T10:45:04.493Z,55.70
2022-11-14T10:46:04.502Z,56.03
2022-11-14T10:47:04.488Z,56.97
2022-11-14T10:48:04.522Z,57.78
2022-11-14T10:49:04.493Z,57.45
2022-11-14T10:50:04.479Z,57.24
2022-11-14T10:51:04.413Z,57.28
2022-11-14T10:52:04.393Z,57.48
2022-11-14T10:53:04.415Z,56.95
2022-11-14T10:54:04.363Z,57.48
2022-11-14T10:55:04.429Z,57.48
2022-11-14T10:56:05.339Z,58.58
2022-11-14T10:57:04.363Z,60.02
2022-11-14T10:58:04.364Z,59.48
2022-11-14T10:59:04.304Z,59.16
2022-11-14T11:00:04.315Z,58.14
2022-11-14T11:01:04.409Z,58.45
2022-11-14T11:02:04.263Z,58.65
2022-11-14T11:03:04.308Z,59.31
2022-11-14T11:04:04.285Z,60.02
2022-11-14T11:05:04.263Z,59.79
2022-11-14T11:06:04.227Z,60.05
2022-11-14T11:07:04.256Z,60.56
2022-11-14T11:08:28.330Z,60.89
2022-11-14T11:09:05.211Z,60.99
2022-11-14T11:10:04.216Z,61.97
2022-11-14T11:11:04.155Z,62.24
2022-11-14T11:12:04.147Z,61.60
2022-11-14T11:13:04.230Z,61.71
2022-11-14T11:14:04.117Z,61.78
2022-11-14T11:15:04.104Z,61.44
2022-11-14T11:16:04.087Z,59.66
2022-11-14T11:17:04.096Z,58.52
2022-11-14T11:18:04.054Z,59.18
2022-11-14T11:19:04.045Z,61.17
2022-11-14T11:20:07.549Z,61.68
2022-11-14T11:21:04.040Z,60.50
2022-11-14T11:22:04.029Z,59.48
2022-11-14T11:23:04.009Z,59.63
2022-11-14T11:24:04.023Z,58.72
2022-11-14T11:25:03.985Z,59.26
2022-11-14T11:26:03.958Z,60.33
2022-11-14T11:27:03.947Z,61.68
2022-11-14T11:28:03.926Z,61.75
2022-11-14T11:29:03.917Z,60.07
2022-11-14T11:30:03.915Z,60.17
2022-11-14T11:31:03.917Z,59.69
2022-11-14T11:32:03.875Z,61.81
2022-11-14T11:33:03.866Z,64.44
2022-11-14T11:34:03.897Z,66.27
2022-11-14T11:35:03.855Z,67.76
2022-11-14T11:36:03.888Z,69.01
2022-11-14T11:37:03.815Z,70.17
2022-11-14T11:38:03.813Z,70.47
2022-11-14T11:39:03.787Z,70.88
2022-11-14T11:40:03.774Z,70.68
2022-11-14T11:41:03.775Z,70.57
2022-11-14T11:42:11.229Z,70.78
2022-11-14T11:44:04.798Z,67.12
2022-11-14T11:45:03.716Z,66.00
2022-11-14T11:46:03.714Z,65.80
2022-11-14T11:47:03.708Z,63.37
2022-11-14T11:48:03.677Z,60.98
2022-11-14T11:49:03.656Z,60.88
2022-11-14T11:50:03.646Z,60.71
2022-11-14T11:51:03.646Z,61.65
2022-11-14T11:52:03.637Z,60.44
2022-11-14T11:53:03.605Z,58.51
2022-11-14T11:54:03.595Z,57.07
2022-11-14T11:55:03.578Z,56.46
2022-11-14T11:56:03.584Z,57.53
2022-11-14T11:57:10.739Z,58.87
2022-11-14T11:58:03.547Z,59.45
2022-11-14T11:59:03.533Z,58.00
2022-11-14T12:00:03.519Z,57.17
2022-11-14T12:01:03.516Z,55.98
2022-11-14T12:02:03.561Z,55.04
2022-11-14T12:03:03.584Z,54.63
2022-11-14T12:04:03.521Z,54.51
2022-11-14T12:05:03.449Z,55.29
2022-11-14T12:06:03.481Z,55.60
2022-11-14T12:07:03.450Z,56.02
2022-11-14T12:08:03.469Z,56.86
2022-11-14T12:09:03.397Z,56.48
2022-11-14T12:10:10.169Z,57.60
2022-11-14T12:11:04.380Z,56.96
2022-11-14T12:12:03.372Z,56.40
2022-11-14T12:13:03.353Z,55.36
2022-11-14T12:14:03.369Z,55.40
2022-11-14T12:15:03.319Z,55.57
2022-11-14T12:16:03.329Z,55.19
2022-11-14T12:17:03.300Z,55.69
2022-11-14T12:18:03.290Z,56.23
2022-11-14T12:19:03.303Z,56.10
2022-11-14T12:20:03.261Z,56.33
2022-11-14T12:21:03.259Z,56.63
2022-11-14T12:22:03.241Z,57.32
2022-11-14T12:23:03.231Z,59.12
2022-11-14T12:24:03.211Z,61.55
2022-11-14T12:25:03.199Z,63.33
2022-11-14T12:26:03.242Z,64.95
2022-11-14T12:27:03.170Z,67.25
2022-11-14T12:28:03.239Z,67.69
2022-11-14T12:29:03.141Z,68.20
2022-11-14T12:30:03.180Z,68.61
2022-11-14T12:31:03.133Z,68.81
2022-11-14T12:32:03.109Z,68.40
2022-11-14T12:33:03.094Z,68.74
2022-11-14T12:34:03.091Z,69.35
2022-11-14T12:35:03.101Z,70.00
2022-11-14T12:36:03.071Z,70.75
2022-11-14T12:37:03.104Z,70.95
2022-11-14T12:38:03.031Z,71.26
2022-11-14T12:39:03.022Z,70.81
2022-11-14T12:40:03.011Z,70.72
2022-11-14T12:41:03.020Z,70.61
2022-11-14T12:42:02.979Z,71.46
2022-11-14T12:43:02.968Z,71.15
2022-11-14T12:44:02.998Z,71.77
2022-11-14T12:45:02.940Z,71.84
2022-11-14T12:46:02.941Z,71.12
2022-11-14T12:47:02.910Z,71.02
2022-11-14T12:48:02.910Z,71.02
2022-11-14T12:49:02.881Z,71.12
2022-11-14T12:50:02.870Z,71.33
2022-11-14T12:51:02.970Z,71.22
2022-11-14T12:52:02.862Z,71.05
2022-11-14T12:53:02.832Z,71.67
2022-11-14T12:54:02.821Z,71.63
2022-11-14T12:55:02.870Z,71.33
2022-11-14T12:56:02.810Z,71.33
2022-11-14T12:57:02.780Z,71.43
2022-11-14T12:58:03.033Z,71.73
2022-11-14T12:59:02.752Z,71.43
2022-11-14T13:00:02.768Z,71.63
2022-11-14T13:01:02.785Z,71.33
2022-11-14T13:02:02.718Z,71.50
2022-11-14T13:03:02.769Z,71.09
2022-11-14T13:04:02.746Z,71.39
2022-11-14T13:05:02.690Z,71.02
2022-11-14T13:06:02.661Z,71.63
2022-11-14T13:07:02.692Z,71.97
2022-11-14T13:08:02.640Z,71.73
2022-11-14T13:09:02.620Z,71.73
2022-11-14T13:10:02.609Z,71.67
2022-11-14T13:11:02.609Z,71.97
2022-11-14T13:12:02.632Z,72.28
2022-11-14T13:13:02.574Z,72.58
2022-11-14T13:14:02.563Z,72.38
2022-11-14T13:15:02.565Z,72.48
2022-11-14T13:16:02.579Z,72.79
2022-11-14T13:17:02.573Z,72.79
2022-11-14T13:18:02.519Z,72.62
2022-11-14T13:19:02.497Z,72.41
2022-11-14T13:20:02.499Z,72.69
2022-11-14T13:21:02.468Z,72.58
2022-11-14T13:22:02.470Z,72.38
2022-11-14T13:23:02.549Z,72.34
2022-11-14T13:24:02.440Z,72.04
2022-11-14T13:25:02.428Z,72.24
2022-11-14T13:26:02.409Z,72.24
2022-11-14T13:27:02.397Z,72.34
2022-11-14T13:28:16.648Z,72.24
2022-11-14T13:29:03.428Z,71.84
2022-11-14T13:30:02.369Z,71.53
2022-11-14T13:31:02.337Z,71.73
2022-11-14T13:32:02.331Z,71.84
2022-11-14T13:33:02.330Z,71.73
2022-11-14T13:34:02.411Z,71.94
2022-11-14T13:35:02.306Z,71.97
2022-11-14T13:36:05.274Z,72.58
2022-11-14T13:37:02.262Z,73.13
2022-11-14T13:38:02.278Z,73.03
2022-11-14T13:39:02.270Z,73.44
2022-11-14T13:40:02.237Z,73.44
2022-11-14T13:41:02.209Z,73.44
2022-11-14T13:42:02.208Z,73.54
2022-11-14T13:43:02.188Z,73.54
2022-11-14T13:44:02.176Z,73.54
2022-11-14T13:45:02.168Z,73.64
2022-11-14T13:46:02.147Z,73.94
2022-11-14T13:47:02.246Z,74.39
2022-11-14T13:48:02.126Z,74.05
2022-11-14T13:49:02.106Z,74.39
2022-11-14T13:50:02.107Z,74.49
2022-11-14T13:51:15.563Z,74.46
2022-11-14T13:52:03.074Z,74.15
2022-11-14T13:53:02.056Z,74.29
2022-11-14T13:54:02.046Z,74.49
2022-11-14T13:55:02.026Z,74.69
2022-11-14T13:56:02.037Z,74.69
2022-11-14T13:57:02.006Z,75.21
2022-11-14T13:58:01.996Z,75.10
2022-11-14T13:59:02.009Z,75.00
2022-11-14T14:00:01.966Z,74.90
2022-11-14T14:01:01.994Z,75.00
2022-11-14T14:02:01.935Z,75.41
2022-11-14T14:03:01.914Z,75.31
2022-11-14T14:04:01.904Z,75.31
2022-11-14T14:05:01.897Z,75.41
2022-11-14T14:06:05.544Z,75.10
2022-11-14T14:07:01.932Z,75.51
2022-11-14T14:08:01.864Z,75.62
2022-11-14T14:09:01.844Z,75.82
2022-11-14T14:10:01.836Z,76.12
2022-11-14T14:11:01.823Z,76.12
2022-11-14T14:12:01.804Z,76.23
2022-11-14T14:13:01.796Z,76.12
2022-11-14T14:14:01.784Z,76.06
2022-11-14T14:15:01.784Z,76.16
2022-11-14T14:16:01.764Z,76.78
2022-11-14T14:17:01.733Z,76.78
2022-11-14T14:18:01.744Z,76.47
2022-11-14T14:19:01.704Z,76.26
2022-11-14T14:20:01.702Z,76.37
2022-11-14T14:21:01.703Z,76.37
2022-11-14T14:22:01.673Z,76.47
2022-11-14T14:23:01.690Z,76.37
2022-11-14T14:24:01.645Z,76.43
2022-11-14T14:25:01.635Z,76.43
2022-11-14T14:26:01.655Z,76.53
2022-11-14T14:27:01.603Z,76.84
2022-11-14T14:28:01.592Z,77.08
2022-11-14T14:29:05.896Z,76.67
2022-11-14T14:30:01.561Z,76.67
2022-11-14T14:31:01.561Z,76.67
2022-11-14T14:32:01.542Z,76.78
2022-11-14T14:33:01.522Z,77.19
2022-11-14T14:34:01.512Z,77.19
2022-11-14T14:35:01.491Z,77.29
2022-11-14T14:36:01.491Z,77.29
2022-11-14T14:37:01.473Z,77.29
2022-11-14T14:38:01.462Z,77.39
2022-11-14T14:39:01.452Z,77.70
2022-11-14T14:40:01.439Z,77.49
2022-11-14T14:41:01.421Z,77.70
2022-11-14T14:42:01.401Z,77.59
2022-11-14T14:43:01.399Z,77.80
2022-11-14T14:44:01.386Z,78.00
2022-11-14T14:45:01.365Z,78.11
2022-11-14T14:46:01.372Z,77.90
2022-11-14T14:47:01.330Z,77.90
2022-11-14T14:48:01.321Z,78.00
2022-11-14T14:49:01.301Z,78.00
2022-11-14T14:50:01.343Z,77.90
2022-11-14T14:51:01.301Z,77.90
2022-11-14T14:52:01.271Z,78.20
2022-11-14T14:53:01.250Z,78.20
2022-11-14T14:54:01.249Z,78.20
2022-11-14T14:55:01.227Z,78.31
2022-11-14T14:56:01.232Z,77.90
2022-11-14T14:57:01.228Z,77.86
2022-11-14T14:58:01.192Z,77.45
2022-11-14T14:59:01.169Z,78.48
2022-11-14T15:00:01.161Z,78.52
2022-11-14T15:01:01.219Z,78.82
2022-11-14T15:02:01.139Z,78.41
2022-11-14T15:03:01.118Z,78.65
2022-11-14T15:04:01.109Z,79.16
2022-11-14T15:05:01.100Z,79.57
2022-11-14T15:06:01.097Z,79.68
2022-11-14T15:07:01.108Z,79.98
2022-11-14T15:08:01.070Z,80.19
2022-11-14T15:09:01.038Z,79.98
2022-11-14T15:10:01.037Z,80.08
2022-11-14T15:11:01.028Z,80.49
2022-11-14T15:12:01.008Z,80.43
2022-11-14T15:13:01.006Z,80.33
2022-11-14T15:14:00.978Z,80.33
2022-11-14T15:15:00.957Z,80.49
2022-11-14T15:16:00.969Z,80.08
2022-11-14T15:17:00.936Z,80.49
2022-11-14T15:18:00.929Z,80.74
2022-11-14T15:19:00.914Z,80.53
2022-11-14T15:20:00.920Z,80.63
2022-11-14T15:21:00.886Z,80.63
2022-11-14T15:22:00.877Z,80.63
2022-11-14T15:23:00.857Z,80.74
2022-11-14T15:24:00.849Z,81.15
2022-11-14T15:25:00.834Z,81.04
2022-11-14T15:26:00.834Z,81.15
2022-11-14T15:27:00.807Z,81.24
2022-11-14T15:28:00.823Z,81.56
2022-11-14T15:29:00.776Z,81.45
2022-11-14T15:30:00.778Z,81.45
2022-11-14T15:31:00.918Z,81.35
2022-11-14T15:32:00.736Z,81.45
2022-11-14T15:33:00.727Z,81.45
2022-11-14T15:34:00.716Z,81.56
2022-11-14T15:35:00.715Z,81.76
2022-11-14T15:36:00.685Z,82.07
2022-11-14T15:37:00.685Z,82.21
2022-11-14T15:38:21.777Z,82.00
2022-11-14T15:39:01.645Z,81.86
2022-11-14T15:40:00.636Z,81.96
2022-11-14T15:41:00.625Z,81.76
2022-11-14T15:42:00.625Z,82.07
2022-11-14T15:43:00.596Z,82.00
2022-11-14T15:44:00.586Z,82.00
2022-11-14T15:45:00.575Z,81.79
2022-11-14T15:46:00.563Z,82.10
2022-11-14T15:47:00.556Z,82.00
2022-11-14T15:48:00.536Z,82.21
2022-11-14T15:49:00.525Z,81.90
2022-11-14T15:50:00.519Z,82.31
2022-11-14T15:51:00.495Z,82.00
2022-11-14T15:52:00.504Z,81.79
2022-11-14T15:53:00.466Z,81.79
2022-11-14T15:54:00.462Z,81.70
2022-11-14T15:55:00.457Z,81.90
2022-11-14T15:56:00.444Z,81.70
2022-11-14T15:57:00.432Z,81.90
2022-11-14T15:58:26.463Z,81.90
2022-11-14T15:59:01.391Z,81.90
2022-11-14T16:00:00.384Z,81.79
2022-11-14T16:01:00.449Z,81.70
2022-11-14T16:02:00.373Z,81.70
2022-11-14T16:03:00.342Z,81.59
2022-11-14T16:04:00.333Z,81.59
2022-11-14T16:05:00.312Z,81.35
2022-11-14T16:06:00.305Z,81.35
2022-11-14T16:07:00.420Z,81.24
2022-11-14T16:08:00.281Z,81.24
2022-11-14T16:09:00.272Z,81.15
2022-11-14T16:10:00.265Z,81.04
2022-11-14T16:11:00.240Z,80.74
2022-11-14T16:12:00.255Z,80.53
2022-11-14T16:13:00.211Z,80.33
2022-11-14T16:14:00.201Z,80.53
2022-11-14T16:15:00.195Z,80.63
2022-11-14T16:16:00.183Z,80.63
2022-11-14T16:17:00.180Z,80.74
2022-11-14T16:18:00.175Z,80.63
2022-11-14T16:19:00.140Z,80.74
2022-11-14T16:20:00.142Z,80.63
2022-11-14T16:21:00.126Z,80.74
2022-11-14T16:22:00.118Z,80.63
2022-11-14T16:23:00.094Z,80.53
2022-11-14T16:24:00.115Z,80.74
2022-11-14T16:25:00.070Z,80.83
2022-11-14T16:26:00.058Z,80.63
2022-11-14T16:27:00.059Z,80.74
2022-11-14T16:28:00.031Z,81.04
2022-11-14T16:29:00.019Z,81.18
2022-11-14T16:30:00.001Z,81.08
2022-11-14T16:30:59.990Z,81.08
2022-11-14T16:31:59.998Z,81.29
2022-11-14T16:32:59.971Z,81.18
2022-11-14T16:33:59.949Z,81.29
2022-11-14T16:34:59.937Z,81.38
2022-11-14T16:35:59.930Z,81.38
2022-11-14T16:36:59.919Z,80.98
2022-11-14T16:37:59.898Z,81.08
2022-11-14T16:38:59.887Z,81.29
2022-11-14T16:39:59.929Z,81.08
2022-11-14T16:40:59.855Z,81.29
2022-11-14T16:41:59.857Z,81.29
2022-11-14T16:42:59.835Z,81.18
2022-11-14T16:43:59.818Z,80.98
2022-11-14T16:44:59.856Z,80.98
2022-11-14T16:45:59.800Z,80.98
2022-11-14T16:46:59.788Z,81.08
2022-11-14T16:47:59.798Z,80.98
2022-11-14T16:48:59.747Z,81.18
2022-11-14T16:49:59.782Z,81.38
2022-11-14T16:50:59.727Z,81.52
2022-11-14T16:51:59.737Z,81.43
2022-11-14T16:52:59.696Z,81.43
2022-11-14T16:53:59.688Z,81.63
2022-11-14T16:54:59.677Z,81.63
2022-11-14T16:55:59.665Z,81.63
2022-11-14T16:56:59.665Z,81.63
2022-11-14T16:57:59.635Z,81.84
2022-11-14T16:58:59.624Z,82.04
2022-11-14T16:59:59.742Z,82.04
2022-11-14T17:00:59.657Z,82.04
2022-11-14T17:01:59.623Z,82.04
2022-11-14T17:02:59.584Z,82.14
2022-11-14T17:03:59.565Z,82.14
2022-11-14T17:04:59.546Z,81.94
2022-11-14T17:05:59.544Z,82.04
2022-11-14T17:06:59.565Z,82.04
2022-11-14T17:07:59.523Z,82.04
2022-11-14T17:08:59.506Z,81.94
2022-11-14T17:09:59.497Z,81.94
2022-11-14T17:10:59.466Z,81.94
2022-11-14T17:11:59.454Z,82.04
2022-11-14T17:12:59.443Z,81.94
2022-11-14T17:13:59.438Z,82.04
2022-11-14T17:14:59.416Z,81.73
2022-11-14T17:15:59.404Z,81.84
2022-11-14T17:17:00.833Z,81.63
2022-11-14T17:17:59.393Z,81.73
2022-11-14T17:18:59.363Z,81.63
2022-11-14T17:19:59.363Z,81.52
2022-11-14T17:20:59.345Z,81.63
2022-11-14T17:21:59.333Z,81.73
2022-11-14T17:22:59.323Z,82.04
2022-11-14T17:23:59.303Z,81.84
2022-11-14T17:24:59.293Z,81.84
2022-11-14T17:25:59.283Z,81.84
2022-11-14T17:26:59.264Z,81.84
2022-11-14T17:27:59.272Z,81.73
2022-11-14T17:28:59.244Z,81.84
2022-11-14T17:29:59.233Z,81.84
2022-11-14T17:30:59.212Z,81.84
2022-11-14T17:31:59.202Z,82.04
2022-11-14T17:32:59.203Z,82.14
2022-11-14T17:33:59.183Z,82.04
2022-11-14T17:34:59.161Z,82.14
2022-11-14T17:35:59.155Z,82.24
2022-11-14T17:36:59.138Z,82.35
2022-11-14T17:38:00.481Z,82.55
2022-11-14T17:38:59.136Z,82.86
2022-11-14T17:39:59.100Z,82.86
2022-11-14T17:40:59.082Z,82.86
2022-11-14T17:41:59.081Z,82.65
2022-11-14T17:42:59.071Z,82.65
2022-11-14T17:43:59.049Z,82.76
2022-11-14T17:44:59.030Z,82.76
2022-11-14T17:45:59.027Z,82.76
2022-11-14T17:46:59.009Z,82.76
2022-11-14T17:47:59.009Z,82.86
2022-11-14T17:48:58.990Z,82.96
2022-11-14T17:49:59.009Z,82.96
2022-11-14T17:50:58.959Z,83.06
2022-11-14T17:51:58.970Z,83.17
2022-11-14T17:52:58.949Z,83.17
2022-11-14T17:53:58.930Z,83.17
2022-11-14T17:54:58.909Z,83.06
2022-11-14T17:55:58.909Z,83.17
2022-11-14T17:57:05.929Z,83.17
2022-11-14T17:57:58.893Z,83.27
2022-11-14T17:58:58.869Z,83.27
2022-11-14T17:59:58.851Z,83.27
2022-11-14T18:00:58.840Z,83.27
2022-11-14T18:01:58.852Z,83.37
2022-11-14T18:02:58.826Z,83.27
2022-11-14T18:04:03.189Z,83.27
2022-11-14T18:04:59.779Z,83.51
2022-11-14T18:05:58.781Z,83.37
2022-11-14T18:06:58.857Z,83.37
2022-11-14T18:07:58.770Z,83.37
2022-11-14T18:08:58.730Z,83.37
2022-11-14T18:09:58.731Z,83.47
2022-11-14T18:10:58.709Z,83.37
2022-11-14T18:11:58.701Z,83.47
2022-11-14T18:12:58.699Z,83.37
2022-11-14T18:13:58.681Z,83.47
2022-11-14T18:14:58.651Z,83.47
2022-11-14T18:15:58.649Z,83.47
2022-11-14T18:17:12.208Z,83.47
2022-11-14T18:17:59.622Z,83.58
2022-11-14T18:18:58.618Z,83.58
2022-11-14T18:19:58.598Z,83.47
2022-11-14T18:20:58.579Z,83.58
2022-11-14T18:21:58.640Z,83.58
2022-11-14T18:22:58.559Z,83.68
2022-11-14T18:23:58.550Z,83.58
2022-11-14T18:25:01.246Z,83.68